createdAt,value
2018-12-02T00:00:48.937Z,1.40
2018-12-02T00:03:18.494Z,2.00
2018-12-02T00:05:45.951Z,1.60
2018-12-02T00:08:14.438Z,1.90
2018-12-02T00:10:41.899Z,1.97
2018-12-02T00:13:12.048Z,2.03
2018-12-02T00:15:40.642Z,1.93
2018-12-02T00:18:08.105Z,1.93
2018-12-02T00:20:35.536Z,1.93
2018-12-02T00:23:02.998Z,1.47
2018-12-02T00:25:30.506Z,1.60
2018-12-02T00:27:57.948Z,1.80
2018-12-02T00:30:25.440Z,1.60
2018-12-02T00:32:52.931Z,2.63
2018-12-02T00:35:21.074Z,1.77
2018-12-02T00:37:48.546Z,2.00
2018-12-02T00:40:15.979Z,1.60
2018-12-02T00:42:43.459Z,2.03
2018-12-02T00:45:10.923Z,2.17
2018-12-02T00:47:38.411Z,1.80
2018-12-02T00:50:05.855Z,2.37
2018-12-02T00:52:33.331Z,2.30
2018-12-02T00:55:00.816Z,2.70
2018-12-02T00:57:28.285Z,2.20
2018-12-02T00:59:56.475Z,4.37
2018-12-02T01:02:23.924Z,1.80
2018-12-02T01:04:53.386Z,1.17
2018-12-02T01:07:20.856Z,2.00
2018-12-02T01:09:48.330Z,2.00
2018-12-02T01:12:15.894Z,2.20
2018-12-02T01:14:43.321Z,1.80
2018-12-02T01:17:10.846Z,2.10
2018-12-02T01:19:38.365Z,1.80
2018-12-02T01:22:05.841Z,2.13
2018-12-02T01:24:33.337Z,2.03
2018-12-02T01:27:00.820Z,1.93
2018-12-02T01:29:28.307Z,2.10
2018-12-02T01:31:55.763Z,1.70
2018-12-02T01:34:23.227Z,1.83
2018-12-02T01:36:50.658Z,1.60
2018-12-02T01:39:18.805Z,1.77
2018-12-02T01:41:46.310Z,1.73
2018-12-02T01:44:13.785Z,1.83
2018-12-02T01:46:41.229Z,1.53
2018-12-02T01:49:08.715Z,1.90
2018-12-02T01:51:36.212Z,1.60
2018-12-02T01:54:05.503Z,2.23
2018-12-02T01:56:32.963Z,1.70
2018-12-02T01:59:00.388Z,1.70
2018-12-02T02:01:27.820Z,1.50
2018-12-02T02:03:55.311Z,1.50
2018-12-02T02:06:22.773Z,1.30
2018-12-02T02:08:50.286Z,1.47
2018-12-02T02:11:17.803Z,1.40
2018-12-02T02:13:45.403Z,1.53
2018-12-02T02:16:12.903Z,2.10
2018-12-02T02:18:40.360Z,1.60
2018-12-02T02:21:07.865Z,2.03
2018-12-02T02:23:35.369Z,1.43
2018-12-02T02:26:02.846Z,1.47
2018-12-02T02:28:30.303Z,1.50
2018-12-02T02:30:58.422Z,1.50
2018-12-02T02:33:25.880Z,1.40
2018-12-02T02:35:53.433Z,1.30
2018-12-02T02:38:20.839Z,1.43
2018-12-02T02:40:48.296Z,1.27
2018-12-02T02:43:15.727Z,1.53
2018-12-02T02:45:43.201Z,1.20
2018-12-02T02:48:10.629Z,1.30
2018-12-02T02:50:38.085Z,1.33
2018-12-02T02:53:06.729Z,1.20
2018-12-02T02:55:34.194Z,0.93
2018-12-02T02:58:01.664Z,1.13
2018-12-02T03:00:29.193Z,1.20
2018-12-02T03:03:00.859Z,1.10
2018-12-02T03:05:28.366Z,0.90
2018-12-02T03:07:55.905Z,1.20
2018-12-02T03:10:23.317Z,1.60
2018-12-02T03:12:51.845Z,0.93
2018-12-02T03:15:19.296Z,0.93
2018-12-02T03:17:46.726Z,1.00
2018-12-02T03:20:14.174Z,1.20
2018-12-02T03:22:41.595Z,1.17
2018-12-02T03:25:09.045Z,0.97
2018-12-02T03:27:36.492Z,0.80
2018-12-02T03:30:03.935Z,1.10
2018-12-02T03:32:31.382Z,0.90
2018-12-02T03:34:58.861Z,1.00
2018-12-02T03:37:26.324Z,2.20
2018-12-02T03:39:53.774Z,0.80
2018-12-02T03:42:21.241Z,0.93
2018-12-02T03:44:49.523Z,1.00
2018-12-02T03:47:16.956Z,1.00
2018-12-02T03:49:44.399Z,0.80
2018-12-02T03:52:11.826Z,0.53
2018-12-02T03:54:39.278Z,1.10
2018-12-02T03:57:06.727Z,4.57
2018-12-02T03:59:34.191Z,1.10
2018-12-02T04:02:01.619Z,0.70
2018-12-02T04:04:29.150Z,0.87
2018-12-02T04:06:56.557Z,0.97
2018-12-02T04:09:24.010Z,0.90
2018-12-02T04:11:51.437Z,0.90
2018-12-02T04:14:18.867Z,1.20
2018-12-02T04:16:46.326Z,0.90
2018-12-02T04:19:14.351Z,0.90
2018-12-02T04:21:41.815Z,0.90
2018-12-02T04:27:06.567Z,0.90
2018-12-02T04:29:34.015Z,0.80
2018-12-02T04:32:01.460Z,0.87
2018-12-02T04:34:28.888Z,0.80
2018-12-02T04:36:56.330Z,1.30
2018-12-02T04:39:23.771Z,0.83
2018-12-02T04:41:53.069Z,0.73
2018-12-02T04:44:20.491Z,1.50
2018-12-02T04:46:47.957Z,0.60
2018-12-02T04:49:15.412Z,0.70
2018-12-02T04:51:42.839Z,0.83
2018-12-02T04:54:10.290Z,0.70
2018-12-02T04:56:37.768Z,0.70
2018-12-02T04:59:05.198Z,1.50
2018-12-02T05:01:32.668Z,0.83
2018-12-02T05:04:00.107Z,0.67
2018-12-02T05:06:27.550Z,0.60
2018-12-02T05:08:55.001Z,0.70
2018-12-02T05:11:22.474Z,0.60
2018-12-02T05:13:49.912Z,0.60
2018-12-02T05:16:17.362Z,0.50
2018-12-02T05:18:44.801Z,0.50
2018-12-02T05:21:12.241Z,0.63
2018-12-02T05:23:39.686Z,0.60
2018-12-02T05:26:07.136Z,0.40
2018-12-02T05:28:34.592Z,0.70
2018-12-02T05:31:02.042Z,0.50
2018-12-02T05:33:29.471Z,0.60
2018-12-02T05:35:56.919Z,0.70
2018-12-02T05:38:24.337Z,0.60
2018-12-02T05:40:51.778Z,0.47
2018-12-02T05:43:19.199Z,0.77
2018-12-02T05:45:47.604Z,0.60
2018-12-02T05:48:16.789Z,2.67
2018-12-02T05:50:44.291Z,0.60
2018-12-02T05:53:11.708Z,1.40
2018-12-02T05:55:39.142Z,0.60
2018-12-02T05:58:06.573Z,0.60
2018-12-02T06:00:34.034Z,0.73
2018-12-02T06:03:01.460Z,0.67
2018-12-02T06:05:28.923Z,0.50
2018-12-02T06:07:56.367Z,0.40
2018-12-02T06:10:23.828Z,0.70
2018-12-02T06:12:51.272Z,0.50
2018-12-02T06:15:18.694Z,0.60
2018-12-02T06:17:46.166Z,0.60
2018-12-02T06:20:13.601Z,0.60
2018-12-02T06:22:41.049Z,0.50
2018-12-02T06:25:08.467Z,0.50
2018-12-02T06:27:35.889Z,0.50
2018-12-02T06:30:03.345Z,0.50
2018-12-02T06:32:30.816Z,0.50
2018-12-02T06:34:58.252Z,0.60
2018-12-02T06:37:25.699Z,0.60
2018-12-02T06:39:53.174Z,0.53
2018-12-02T06:42:20.588Z,0.60
2018-12-02T06:44:48.023Z,0.70
2018-12-02T06:47:15.460Z,0.60
2018-12-02T06:49:42.926Z,0.80
2018-12-02T06:52:10.337Z,0.60
2018-12-02T06:54:39.638Z,0.50
2018-12-02T06:57:09.046Z,0.70
2018-12-02T06:59:36.648Z,0.50
2018-12-02T07:02:05.509Z,0.40
2018-12-02T07:04:33.581Z,0.67
2018-12-02T07:07:01.139Z,0.60
2018-12-02T07:09:28.606Z,0.60
2018-12-02T07:11:56.039Z,0.50
2018-12-02T07:14:23.483Z,0.67
2018-12-02T07:16:50.899Z,0.57
2018-12-02T07:19:20.647Z,0.60
2018-12-02T07:21:49.323Z,0.60
2018-12-02T07:24:18.704Z,0.60
2018-12-02T07:26:46.294Z,0.40
2018-12-02T07:29:13.726Z,0.43
2018-12-02T07:31:41.169Z,0.53
2018-12-02T07:34:08.610Z,0.47
2018-12-02T07:36:36.062Z,0.80
2018-12-02T07:39:03.498Z,0.80
2018-12-02T07:41:30.932Z,0.60
2018-12-02T07:43:58.364Z,0.63
2018-12-02T07:46:25.788Z,0.40
2018-12-02T07:48:53.274Z,0.70
2018-12-02T07:51:21.534Z,0.70
2018-12-02T07:53:50.189Z,0.53
2018-12-02T07:56:17.638Z,0.63
2018-12-02T07:58:45.068Z,0.60
2018-12-02T08:01:13.552Z,0.70
2018-12-02T08:03:40.970Z,0.60
2018-12-02T08:06:08.410Z,0.50
2018-12-02T08:08:35.921Z,0.53
2018-12-02T08:11:03.399Z,0.60
2018-12-02T08:13:30.840Z,1.07
2018-12-02T08:16:01.877Z,0.93
2018-12-02T08:18:29.360Z,0.80
2018-12-02T08:20:56.783Z,0.50
2018-12-02T08:23:27.346Z,0.63
2018-12-02T08:25:54.784Z,0.43
2018-12-02T08:28:22.245Z,0.60
2018-12-02T08:30:50.289Z,0.60
2018-12-02T08:33:17.773Z,0.83
2018-12-02T08:35:45.243Z,0.80
2018-12-02T08:38:12.694Z,0.70
2018-12-02T08:40:40.162Z,0.60
2018-12-02T08:43:07.622Z,0.90
2018-12-02T08:45:35.928Z,1.10
2018-12-02T08:48:03.472Z,0.90
2018-12-02T08:50:30.908Z,0.90
2018-12-02T08:52:59.474Z,0.90
2018-12-02T08:55:26.956Z,0.80
2018-12-02T08:57:54.419Z,0.83
2018-12-02T09:00:21.858Z,1.23
2018-12-02T09:02:49.339Z,0.90
2018-12-02T09:05:16.759Z,0.87
2018-12-02T09:07:47.025Z,1.00
2018-12-02T09:10:15.435Z,1.07
2018-12-02T09:12:42.901Z,0.90
2018-12-02T09:15:10.341Z,1.03
2018-12-02T09:17:37.776Z,0.93
2018-12-02T09:20:07.093Z,2.17
2018-12-02T09:22:34.540Z,1.20
2018-12-02T09:25:01.994Z,1.00
2018-12-02T09:27:29.487Z,1.23
2018-12-02T09:29:56.922Z,1.10
2018-12-02T09:32:24.415Z,1.17
2018-12-02T09:34:51.840Z,0.70
2018-12-02T09:37:19.289Z,1.23
2018-12-02T09:39:47.495Z,1.20
2018-12-02T09:42:18.388Z,1.20
2018-12-02T09:44:45.870Z,1.30
2018-12-02T09:47:13.290Z,1.07
2018-12-02T09:49:40.797Z,1.20
2018-12-02T09:52:08.279Z,1.20
2018-12-02T09:54:39.867Z,1.13
2018-12-02T09:57:07.314Z,0.90
2018-12-02T09:59:34.781Z,0.90
2018-12-02T10:02:02.219Z,1.10
2018-12-02T10:04:30.892Z,1.10
2018-12-02T10:06:58.324Z,1.20
2018-12-02T10:09:27.106Z,0.97
2018-12-02T10:11:54.546Z,1.30
2018-12-02T10:14:22.023Z,1.23
2018-12-02T10:16:49.476Z,1.30
2018-12-02T10:19:16.904Z,1.40
2018-12-02T10:21:44.354Z,1.90
2018-12-02T10:24:11.790Z,2.10
2018-12-02T10:26:40.008Z,1.90
2018-12-02T10:29:07.462Z,2.00
2018-12-02T10:31:42.024Z,1.80
2018-12-02T10:51:19.106Z,3.97
2018-12-02T10:53:46.568Z,3.77
2018-12-02T10:56:14.045Z,4.33
2018-12-02T10:58:49.356Z,5.03
2018-12-02T11:01:21.746Z,5.30
2018-12-02T11:03:50.531Z,6.70
2018-12-02T11:06:18.013Z,4.87
2018-12-02T11:08:45.431Z,6.00
2018-12-02T11:11:12.897Z,7.00
2018-12-02T11:13:40.370Z,8.27
2018-12-02T11:16:07.824Z,8.07
2018-12-02T11:18:35.279Z,7.20
2018-12-02T11:21:02.728Z,9.00
2018-12-02T11:23:30.202Z,7.37
2018-12-02T11:25:57.654Z,7.20
2018-12-02T11:28:25.089Z,5.40
2018-12-02T11:30:52.536Z,6.17
2018-12-02T11:33:22.483Z,8.03
2018-12-02T11:35:50.065Z,9.30
2018-12-02T11:38:17.554Z,8.73
2018-12-02T11:40:45.005Z,8.17
2018-12-02T11:43:22.444Z,8.97
2018-12-02T11:45:50.167Z,8.93
2018-12-02T11:48:18.871Z,8.50
2018-12-02T11:50:46.344Z,8.73
2018-12-02T11:53:13.784Z,8.07
2018-12-02T11:55:42.307Z,8.77
2018-12-02T11:58:09.752Z,9.33
2018-12-02T12:00:37.191Z,9.83
2018-12-02T12:03:04.667Z,9.20
2018-12-02T12:05:34.056Z,10.87
2018-12-02T12:08:02.624Z,9.40
2018-12-02T12:10:30.085Z,11.83
2018-12-02T12:12:59.220Z,10.70
2018-12-02T12:15:28.260Z,10.87
2018-12-02T12:17:58.719Z,8.60
2018-12-02T12:20:26.157Z,7.57
2018-12-02T12:22:54.222Z,6.70
2018-12-02T12:25:24.933Z,7.50
2018-12-02T12:44:56.137Z,5.07
2018-12-02T12:47:34.298Z,4.53
2018-12-02T12:50:03.269Z,4.57
2018-12-02T12:52:30.706Z,4.73
2018-12-02T12:55:00.122Z,4.60
2018-12-02T12:57:27.631Z,4.73
2018-12-02T12:59:55.093Z,5.70
2018-12-02T13:02:32.856Z,5.17
2018-12-02T13:05:01.394Z,5.30
2018-12-02T13:07:28.834Z,4.40
2018-12-02T13:09:57.048Z,5.20
2018-12-02T13:12:24.615Z,3.67
2018-12-02T13:14:54.016Z,3.90
2018-12-02T13:17:21.518Z,3.47
2018-12-02T13:19:50.398Z,3.77
2018-12-02T13:22:17.882Z,3.20
2018-12-02T13:24:45.328Z,4.10
2018-12-02T13:27:12.798Z,3.00
2018-12-02T13:29:40.834Z,2.67
2018-12-02T13:32:09.219Z,3.10
2018-12-02T13:34:36.717Z,3.57
2018-12-02T13:37:05.033Z,3.10
2018-12-02T13:39:32.479Z,3.20
2018-12-02T13:41:59.956Z,3.27
2018-12-02T13:44:27.380Z,3.47
2018-12-02T13:46:54.846Z,3.27
2018-12-02T13:49:53.574Z,2.97
2018-12-02T13:52:52.384Z,3.37
2018-12-02T13:55:52.113Z,4.07
2018-12-02T13:58:54.404Z,3.43
2018-12-02T14:01:52.713Z,3.97
2018-12-02T14:04:56.261Z,3.60
2018-12-02T14:07:24.767Z,3.60
2018-12-02T14:09:55.411Z,3.47
2018-12-02T14:12:24.011Z,3.03
2018-12-02T14:14:52.209Z,3.67
2018-12-02T14:17:21.929Z,3.40
2018-12-02T14:19:50.009Z,3.90
2018-12-02T14:22:19.219Z,3.90
2018-12-02T14:24:48.728Z,3.90
2018-12-02T14:27:18.013Z,4.03
2018-12-02T14:29:48.425Z,4.47
2018-12-02T14:32:16.928Z,4.30
2018-12-02T14:34:45.944Z,4.53
2018-12-02T14:37:13.369Z,4.80
2018-12-02T14:39:43.431Z,5.03
2018-12-02T14:42:10.903Z,4.77
2018-12-02T14:44:38.405Z,5.67
2018-12-02T14:47:06.351Z,4.43
2018-12-02T14:49:35.855Z,4.60
2018-12-02T14:52:04.624Z,4.97
2018-12-02T14:54:33.123Z,5.50
2018-12-02T14:57:00.608Z,5.17
2018-12-02T14:59:29.766Z,4.27
2018-12-02T15:01:57.258Z,6.00
2018-12-02T15:04:25.198Z,5.13
2018-12-02T15:06:52.670Z,6.17
2018-12-02T15:09:20.236Z,5.97
2018-12-02T15:11:48.238Z,7.60
2018-12-02T15:14:16.484Z,6.87
2018-12-02T15:31:02.743Z,7.23
2018-12-02T15:33:30.204Z,9.50
2018-12-02T15:35:57.626Z,7.97
2018-12-02T15:38:25.088Z,10.47
2018-12-02T15:40:56.448Z,8.87
2018-12-02T15:43:23.919Z,7.63
2018-12-02T15:45:51.830Z,8.30
2018-12-02T15:48:19.273Z,7.83
2018-12-02T15:50:50.406Z,7.97
2018-12-02T16:10:21.386Z,5.23
2018-12-02T16:12:52.507Z,6.03
2018-12-02T16:15:21.105Z,5.40
2018-12-02T16:17:51.463Z,6.53
2018-12-02T16:20:21.786Z,6.47
2018-12-02T16:22:51.314Z,6.03
2018-12-02T16:25:24.873Z,5.77
2018-12-02T16:27:53.589Z,5.60
2018-12-02T16:30:22.309Z,4.97
2018-12-02T16:32:50.933Z,5.63
2018-12-02T16:35:19.506Z,5.57
2018-12-02T16:37:47.991Z,5.10
2018-12-02T16:40:22.586Z,6.47
2018-12-02T16:42:51.701Z,5.10
2018-12-02T16:45:20.147Z,5.13
2018-12-02T16:47:48.979Z,5.90
2018-12-02T16:50:17.593Z,5.30
2018-12-02T16:52:47.932Z,5.77
2018-12-02T16:55:16.490Z,5.37
2018-12-02T16:57:48.040Z,6.60
2018-12-02T17:00:16.270Z,5.23
2018-12-02T17:02:43.741Z,4.80
2018-12-02T17:05:11.309Z,5.57
2018-12-02T17:07:39.566Z,5.33
2018-12-02T17:10:07.015Z,7.00
2018-12-02T17:12:34.484Z,6.50
2018-12-02T17:15:02.654Z,10.93
2018-12-02T17:17:34.510Z,8.47
2018-12-02T17:20:02.990Z,8.43
2018-12-02T17:22:30.504Z,8.87
2018-12-02T17:24:57.962Z,7.83
2018-12-02T17:27:26.921Z,7.43
2018-12-02T17:29:55.024Z,6.87
2018-12-02T17:32:23.202Z,6.37
2018-12-02T17:34:50.679Z,6.53
2018-12-02T17:37:18.359Z,6.33
2018-12-02T17:39:45.960Z,5.03
2018-12-02T17:42:16.532Z,5.27
2018-12-02T17:44:45.814Z,7.13
2018-12-02T17:47:13.428Z,5.93
2018-12-02T17:49:40.922Z,6.37
2018-12-02T17:52:08.386Z,5.50
2018-12-02T17:54:35.868Z,7.60
2018-12-02T17:57:03.357Z,4.80
2018-12-02T17:59:30.919Z,5.00
2018-12-02T18:01:58.416Z,6.40
2018-12-02T18:04:25.867Z,5.97
2018-12-02T18:06:53.676Z,7.37
2018-12-02T18:09:21.649Z,4.93
2018-12-02T18:11:49.168Z,5.33
2018-12-02T18:14:19.152Z,5.90
2018-12-02T18:16:50.180Z,4.43
2018-12-02T18:19:16.011Z,5.63
2018-12-02T18:21:44.199Z,4.67
2018-12-02T18:24:13.040Z,5.70
2018-12-02T18:26:41.414Z,6.83
2018-12-02T18:29:09.002Z,6.00
2018-12-02T18:31:36.450Z,4.73
2018-12-02T18:34:05.496Z,4.47
2018-12-02T18:36:32.929Z,6.03
2018-12-02T18:39:00.930Z,7.50
2018-12-02T18:41:28.401Z,5.13
2018-12-02T18:43:55.843Z,4.70
2018-12-02T18:46:23.344Z,4.20
2018-12-02T18:51:24.284Z,3.87
2018-12-02T18:53:51.773Z,3.37
2018-12-02T18:56:19.261Z,4.73
2018-12-02T18:58:46.714Z,3.53
2018-12-02T19:01:14.219Z,4.07
2018-12-02T19:03:41.754Z,3.97
2018-12-02T19:06:10.227Z,4.10
2018-12-02T19:08:39.735Z,3.97
2018-12-02T19:11:09.066Z,3.43
2018-12-02T19:13:43.351Z,4.90
2018-12-02T19:16:05.603Z,3.37
2018-12-02T19:18:33.174Z,3.30
2018-12-02T19:21:00.647Z,3.50
2018-12-02T19:23:28.175Z,2.70
2018-12-02T19:25:57.165Z,2.70
2018-12-02T19:28:24.651Z,2.63
2018-12-02T19:30:53.213Z,4.33
2018-12-02T19:33:20.754Z,3.70
2018-12-02T19:35:48.228Z,2.10
2018-12-02T19:38:15.713Z,2.30
2018-12-02T19:40:44.043Z,2.93
2018-12-02T19:43:11.501Z,2.40
2018-12-02T19:45:39.778Z,2.73
2018-12-02T19:48:07.219Z,2.83
2018-12-02T19:50:35.526Z,2.13
2018-12-02T19:53:02.995Z,2.40
2018-12-02T19:55:30.429Z,2.90
2018-12-02T19:57:57.909Z,2.43
2018-12-02T20:00:25.351Z,2.40
2018-12-02T20:02:52.803Z,2.50
2018-12-02T20:05:20.253Z,2.73
2018-12-02T20:07:47.734Z,2.50
2018-12-02T20:10:15.193Z,2.40
2018-12-02T20:12:42.639Z,2.80
2018-12-02T20:15:10.116Z,2.43
2018-12-02T20:17:37.560Z,2.97
2018-12-02T20:20:05.042Z,2.83
2018-12-02T20:22:32.516Z,3.10
2018-12-02T20:24:59.992Z,2.57
2018-12-02T20:27:27.435Z,3.37
2018-12-02T20:29:54.883Z,2.40
2018-12-02T20:32:22.334Z,2.53
2018-12-02T20:34:49.828Z,2.50
2018-12-02T20:37:18.084Z,4.40
2018-12-02T20:39:46.008Z,3.63
2018-12-02T20:42:13.454Z,3.23
2018-12-02T20:44:40.890Z,3.63
2018-12-02T20:47:08.346Z,4.10
2018-12-02T20:49:35.803Z,3.30
2018-12-02T20:52:03.276Z,6.23
2018-12-02T20:54:30.726Z,5.53
2018-12-02T20:56:58.181Z,6.40
2018-12-02T20:59:25.664Z,4.27
2018-12-02T21:01:53.137Z,6.30
2018-12-02T21:04:20.563Z,4.97
2018-12-02T21:06:48.012Z,5.13
2018-12-02T21:09:15.455Z,4.80
2018-12-02T21:11:44.697Z,4.33
2018-12-02T21:14:12.152Z,4.70
2018-12-02T21:16:41.895Z,5.20
2018-12-02T21:19:09.329Z,5.27
2018-12-02T21:21:38.156Z,5.47
2018-12-02T21:24:05.617Z,4.73
2018-12-02T21:26:34.029Z,6.17
2018-12-02T21:29:01.476Z,7.03
2018-12-02T21:31:28.969Z,6.10
2018-12-02T21:33:56.411Z,5.73
2018-12-02T21:36:24.995Z,6.00
2018-12-02T21:38:52.541Z,6.00
2018-12-02T21:41:19.995Z,6.70
2018-12-02T21:43:47.451Z,11.17
2018-12-02T21:46:14.891Z,7.53
2018-12-02T21:48:42.326Z,9.83
2018-12-02T21:51:09.784Z,9.37
2018-12-02T21:53:37.245Z,9.70
2018-12-02T21:56:04.666Z,7.93
2018-12-02T21:58:32.148Z,7.30
2018-12-02T22:01:00.339Z,6.97
2018-12-02T22:03:27.790Z,6.67
2018-12-02T22:05:55.230Z,8.23
2018-12-02T22:08:23.093Z,7.60
2018-12-02T22:10:51.521Z,8.20
2018-12-02T22:13:20.025Z,8.17
2018-12-02T22:15:47.446Z,7.80
2018-12-02T22:18:15.414Z,8.03
2018-12-02T22:20:47.541Z,8.93
2018-12-02T22:23:15.750Z,8.63
2018-12-02T22:25:43.197Z,8.73
2018-12-02T22:28:13.269Z,9.13
2018-12-02T22:30:40.807Z,8.47
2018-12-02T22:33:08.641Z,9.17
2018-12-02T22:35:36.107Z,8.80
2018-12-02T22:38:04.193Z,7.77
2018-12-02T22:40:31.666Z,8.23
2018-12-02T22:42:59.120Z,8.47
2018-12-02T22:45:26.594Z,8.23
2018-12-02T22:47:54.035Z,7.77
2018-12-02T22:50:21.500Z,7.27
2018-12-02T22:52:48.940Z,9.17
2018-12-02T22:55:16.425Z,10.40
2018-12-02T22:57:44.265Z,10.60
2018-12-02T23:00:11.728Z,10.83
2018-12-02T23:02:39.194Z,11.63
2018-12-02T23:05:06.669Z,10.00
2018-12-02T23:07:35.272Z,9.93
2018-12-02T23:10:02.808Z,9.63
2018-12-02T23:12:32.444Z,9.20
2018-12-02T23:14:59.980Z,8.10
2018-12-02T23:17:29.045Z,8.67
2018-12-02T23:19:56.590Z,9.77
2018-12-02T23:22:25.548Z,9.00
2018-12-02T23:24:53.124Z,8.90
2018-12-02T23:27:20.580Z,8.00
2018-12-02T23:29:48.019Z,8.57
2018-12-02T23:32:16.461Z,8.53
2018-12-02T23:34:45.777Z,9.30
2018-12-02T23:37:20.578Z,8.83
2018-12-02T23:39:48.801Z,8.63
2018-12-02T23:42:17.080Z,8.53
2018-12-02T23:44:45.559Z,9.00
2018-12-02T23:47:13.068Z,10.03
2018-12-02T23:49:42.118Z,9.20
2018-12-02T23:52:09.644Z,9.17
2018-12-02T23:54:37.130Z,9.27
2018-12-02T23:57:04.590Z,7.27
2018-12-02T23:59:32.036Z,8.83
